createdAt,value
2022-11-17T00:00:43.324Z,8.70
2022-11-17T00:03:16.909Z,8.60
2022-11-17T00:05:44.919Z,8.60
2022-11-17T00:10:40.579Z,8.60
2022-11-17T00:13:29.602Z,8.60
2022-11-17T00:15:57.300Z,8.60
2022-11-17T00:18:43.318Z,8.50
2022-11-17T00:21:19.438Z,8.50
2022-11-17T00:23:48.222Z,8.50
2022-11-17T00:26:17.807Z,8.50
2022-11-17T00:28:46.081Z,8.40
2022-11-17T00:31:33.291Z,8.40
2022-11-17T00:34:07.281Z,8.40
2022-11-17T00:36:44.107Z,8.40
2022-11-17T00:39:13.625Z,8.40
2022-11-17T00:41:41.700Z,8.40
2022-11-17T00:44:10.208Z,8.40
2022-11-17T00:46:38.740Z,8.40
2022-11-17T00:49:08.964Z,8.30
2022-11-17T00:51:37.386Z,8.40
2022-11-17T00:54:06.624Z,8.40
2022-11-17T00:56:34.462Z,8.40
2022-11-17T00:59:02.111Z,8.40
2022-11-17T01:01:30.686Z,8.30
2022-11-17T01:04:04.851Z,8.40
2022-11-17T01:06:34.492Z,8.30
2022-11-17T01:09:04.993Z,8.30
2022-11-17T01:11:33.577Z,8.30
2022-11-17T01:14:01.953Z,8.30
2022-11-17T01:16:31.445Z,8.30
2022-11-17T01:19:01.240Z,8.30
2022-11-17T01:21:30.548Z,8.60
2022-11-17T01:24:00.039Z,8.30
2022-11-17T01:26:30.629Z,8.30
2022-11-17T01:28:59.512Z,8.30
2022-11-17T01:31:30.081Z,8.40
2022-11-17T01:33:58.212Z,8.40
2022-11-17T01:36:29.118Z,8.30
2022-11-17T01:38:59.103Z,8.30
2022-11-17T01:41:28.969Z,8.30
2022-11-17T01:43:59.209Z,8.30
2022-11-17T01:46:33.810Z,8.30
2022-11-17T01:49:17.754Z,8.30
2022-11-17T01:51:50.877Z,8.40
2022-11-17T01:54:23.195Z,8.30
2022-11-17T01:56:57.216Z,8.30
2022-11-17T01:59:34.873Z,8.30
2022-11-17T02:02:02.608Z,8.30
2022-11-17T02:04:38.262Z,8.30
2022-11-17T02:07:11.855Z,8.30
2022-11-17T02:09:40.753Z,8.30
2022-11-17T02:12:13.444Z,8.30
2022-11-17T02:14:41.521Z,8.30
2022-11-17T02:17:14.003Z,8.30
2022-11-17T02:19:44.398Z,8.30
2022-11-17T02:22:49.144Z,8.30
2022-11-17T02:25:31.673Z,8.30
2022-11-17T02:28:09.247Z,8.30
2022-11-17T02:31:12.167Z,8.30
2022-11-17T02:33:59.872Z,8.30
2022-11-17T02:36:43.554Z,8.30
2022-11-17T02:39:25.156Z,8.30
2022-11-17T02:42:03.326Z,8.30
2022-11-17T02:44:37.529Z,8.30
2022-11-17T02:47:10.903Z,8.30
2022-11-17T02:49:44.590Z,8.20
2022-11-17T02:52:13.021Z,8.30
2022-11-17T02:54:40.560Z,8.30
2022-11-17T02:57:34.419Z,8.30
2022-11-17T03:00:06.736Z,8.30
2022-11-17T03:02:58.456Z,8.30
2022-11-17T03:05:41.759Z,8.30
2022-11-17T03:08:25.643Z,8.30
2022-11-17T03:13:31.024Z,8.30
2022-11-17T03:16:15.848Z,8.30
2022-11-17T03:19:19.777Z,8.30
2022-11-17T03:22:21.900Z,8.30
2022-11-17T03:24:54.988Z,8.30
2022-11-17T03:27:27.307Z,8.30
2022-11-17T03:29:59.902Z,8.30
2022-11-17T03:32:31.708Z,8.30
2022-11-17T03:35:05.273Z,8.30
2022-11-17T03:37:36.645Z,8.30
2022-11-17T03:40:11.745Z,8.30
2022-11-17T03:42:44.309Z,8.30
2022-11-17T03:45:18.786Z,8.30
2022-11-17T03:47:49.021Z,8.30
2022-11-17T03:50:22.127Z,8.30
2022-11-17T03:52:49.961Z,8.20
2022-11-17T03:55:17.689Z,8.20
2022-11-17T03:57:56.488Z,8.20
2022-11-17T04:00:25.259Z,8.20
2022-11-17T04:02:58.695Z,8.20
2022-11-17T04:05:26.958Z,8.20
2022-11-17T04:07:54.473Z,8.20
2022-11-17T04:10:25.867Z,8.20
2022-11-17T04:13:12.671Z,8.20
2022-11-17T04:15:59.087Z,8.20
2022-11-17T04:18:27.265Z,8.20
2022-11-17T04:20:56.670Z,8.20
2022-11-17T04:23:25.654Z,8.20
2022-11-17T04:26:13.743Z,8.20
2022-11-17T04:28:47.542Z,8.20
2022-11-17T04:31:17.875Z,8.10
2022-11-17T04:33:51.010Z,8.10
2022-11-17T04:36:24.790Z,8.20
2022-11-17T04:38:54.278Z,8.20
2022-11-17T04:41:42.321Z,8.20
2022-11-17T04:44:11.843Z,8.20
2022-11-17T04:46:40.396Z,8.20
2022-11-17T04:49:08.525Z,8.10
2022-11-17T04:51:36.763Z,8.20
2022-11-17T04:54:05.786Z,8.20
2022-11-17T04:56:33.768Z,8.20
2022-11-17T04:59:01.492Z,8.20
2022-11-17T05:01:29.420Z,8.20
2022-11-17T05:04:02.291Z,8.10
2022-11-17T05:06:34.523Z,8.10
2022-11-17T05:09:06.229Z,8.20
2022-11-17T05:11:52.573Z,8.10
2022-11-17T05:14:22.172Z,8.10
2022-11-17T05:17:09.413Z,8.10
2022-11-17T05:19:46.157Z,8.10
2022-11-17T05:22:37.916Z,8.10
2022-11-17T05:25:06.108Z,8.10
2022-11-17T05:27:35.167Z,8.10
2022-11-17T05:30:04.952Z,8.10
2022-11-17T05:32:32.724Z,8.10
2022-11-17T05:35:00.313Z,8.10
2022-11-17T05:37:27.866Z,8.00
2022-11-17T05:39:55.407Z,8.00
2022-11-17T05:42:22.955Z,8.00
2022-11-17T05:44:50.638Z,8.10
2022-11-17T05:47:18.344Z,8.00
2022-11-17T05:49:45.927Z,8.00
2022-11-17T05:52:13.470Z,8.00
2022-11-17T05:54:41.233Z,8.00
2022-11-17T05:57:13.876Z,8.00
2022-11-17T05:59:53.369Z,8.00
2022-11-17T06:02:27.975Z,8.00
2022-11-17T06:04:55.605Z,8.00
2022-11-17T06:07:23.458Z,8.00
2022-11-17T06:09:52.098Z,8.00
2022-11-17T06:12:19.714Z,8.00
2022-11-17T06:14:47.375Z,8.00
2022-11-17T06:17:22.453Z,8.10
2022-11-17T06:20:16.558Z,8.00
2022-11-17T06:22:48.407Z,8.00
2022-11-17T06:25:18.638Z,8.00
2022-11-17T06:27:48.062Z,8.00
2022-11-17T06:30:15.734Z,8.00
2022-11-17T06:32:44.058Z,8.00
2022-11-17T06:35:14.199Z,8.00
2022-11-17T06:40:10.431Z,8.00
2022-11-17T06:42:58.471Z,8.00
2022-11-17T06:45:26.524Z,8.00
2022-11-17T06:47:54.489Z,8.00
2022-11-17T06:50:22.146Z,8.00
2022-11-17T06:52:49.680Z,7.90
2022-11-17T06:55:18.493Z,8.30
2022-11-17T06:57:53.029Z,7.90
2022-11-17T07:00:21.462Z,7.90
2022-11-17T07:02:49.207Z,7.90
2022-11-17T07:05:16.976Z,7.90
2022-11-17T07:07:44.563Z,7.90
2022-11-17T07:10:12.131Z,7.90
2022-11-17T07:12:39.811Z,7.90
2022-11-17T07:15:07.799Z,7.90
2022-11-17T07:17:35.405Z,7.80
2022-11-17T07:20:04.299Z,7.80
2022-11-17T07:22:31.853Z,7.80
2022-11-17T07:24:59.473Z,7.80
2022-11-17T07:27:27.018Z,7.80
2022-11-17T07:32:22.582Z,7.80
2022-11-17T07:34:50.531Z,7.80
2022-11-17T07:37:18.149Z,7.80
2022-11-17T07:39:45.710Z,7.80
2022-11-17T07:42:13.245Z,7.80
2022-11-17T07:44:40.967Z,7.80
2022-11-17T07:47:08.639Z,7.80
2022-11-17T07:49:36.374Z,7.80
2022-11-17T07:52:04.261Z,7.80
2022-11-17T07:54:31.930Z,7.80
2022-11-17T07:56:59.625Z,7.80
2022-11-17T07:59:27.668Z,7.70
2022-11-17T08:01:55.351Z,7.80
2022-11-17T08:04:23.433Z,7.80
2022-11-17T08:06:51.070Z,7.80
2022-11-17T08:09:18.803Z,7.80
2022-11-17T08:11:46.361Z,7.80
2022-11-17T08:14:14.002Z,7.80
2022-11-17T08:16:41.603Z,7.80
2022-11-17T08:19:12.003Z,7.80
2022-11-17T08:21:41.134Z,7.80
2022-11-17T08:24:09.044Z,7.80
2022-11-17T08:26:36.688Z,7.70
2022-11-17T08:29:04.497Z,7.80
2022-11-17T08:31:32.838Z,7.80
2022-11-17T08:34:00.763Z,7.80
2022-11-17T08:36:28.347Z,7.80
2022-11-17T08:38:56.073Z,7.80
2022-11-17T08:41:23.802Z,7.80
2022-11-17T08:43:51.786Z,7.80
2022-11-17T08:46:19.533Z,7.80
2022-11-17T08:48:49.885Z,7.80
2022-11-17T08:51:20.153Z,7.80
2022-11-17T08:53:47.770Z,7.80
2022-11-17T08:58:44.799Z,7.90
2022-11-17T09:01:18.102Z,7.90
2022-11-17T09:03:47.593Z,7.90
2022-11-17T09:06:17.038Z,7.90
2022-11-17T09:08:55.985Z,7.90
2022-11-17T09:11:24.491Z,7.90
2022-11-17T09:13:52.078Z,7.90
2022-11-17T09:16:20.632Z,7.90
2022-11-17T09:18:48.703Z,7.90
2022-11-17T09:21:17.106Z,7.90
2022-11-17T09:23:44.849Z,8.00
2022-11-17T09:26:14.850Z,8.00
2022-11-17T09:28:44.217Z,8.00
2022-11-17T09:31:17.627Z,8.00
2022-11-17T09:33:46.280Z,8.10
2022-11-17T09:36:16.485Z,8.10
2022-11-17T09:38:45.433Z,8.10
2022-11-17T09:41:15.689Z,8.10
2022-11-17T09:44:06.197Z,8.10
2022-11-17T09:47:24.841Z,8.10
2022-11-17T09:50:10.287Z,8.10
2022-11-17T09:52:59.582Z,8.20
2022-11-17T09:55:44.651Z,8.20
2022-11-17T09:58:18.352Z,8.30
2022-11-17T10:00:48.975Z,8.30
2022-11-17T10:03:33.098Z,8.30
2022-11-17T10:06:07.209Z,8.30
2022-11-17T10:09:06.634Z,8.40
2022-11-17T10:11:37.799Z,8.40
2022-11-17T10:14:08.093Z,8.40
2022-11-17T10:16:37.446Z,8.50
2022-11-17T10:19:25.873Z,8.40
2022-11-17T10:22:03.277Z,8.50
2022-11-17T10:24:50.729Z,8.50
2022-11-17T10:27:28.811Z,8.50
2022-11-17T10:30:02.685Z,8.60
2022-11-17T10:32:34.654Z,8.60
2022-11-17T10:35:16.050Z,8.60
2022-11-17T10:38:08.236Z,8.70
2022-11-17T10:40:38.951Z,8.70
2022-11-17T10:43:12.804Z,8.70
2022-11-17T10:45:58.875Z,8.70
2022-11-17T10:48:32.585Z,8.70
2022-11-17T10:51:01.496Z,8.70
2022-11-17T10:53:37.014Z,8.70
2022-11-17T10:56:21.783Z,8.70
2022-11-17T10:59:03.842Z,8.70
2022-11-17T11:01:37.959Z,8.70
2022-11-17T11:04:07.566Z,8.70
2022-11-17T11:06:35.890Z,8.70
2022-11-17T11:09:16.190Z,8.70
2022-11-17T11:11:47.279Z,8.70
2022-11-17T11:14:33.882Z,8.70
2022-11-17T11:17:14.012Z,8.70
2022-11-17T11:19:42.695Z,8.70
2022-11-17T11:22:25.220Z,8.70
2022-11-17T11:25:13.241Z,8.70
2022-11-17T11:28:17.412Z,8.70
2022-11-17T11:31:20.171Z,8.70
2022-11-17T11:33:56.356Z,8.80
2022-11-17T11:36:41.105Z,8.70
2022-11-17T11:39:42.849Z,8.80
2022-11-17T11:42:51.414Z,8.80
2022-11-17T11:45:46.856Z,8.80
2022-11-17T11:48:17.553Z,8.80
2022-11-17T11:50:47.863Z,8.80
2022-11-17T11:53:36.585Z,8.80
2022-11-17T11:56:33.663Z,8.80
2022-11-17T11:59:03.277Z,8.80
2022-11-17T12:01:55.772Z,8.80
2022-11-17T12:04:58.666Z,8.80
2022-11-17T12:07:56.122Z,8.80
2022-11-17T12:10:39.539Z,8.80
2022-11-17T12:13:14.860Z,8.80
2022-11-17T12:15:42.806Z,8.70
2022-11-17T12:18:29.017Z,8.70
2022-11-17T12:21:03.243Z,8.70
2022-11-17T12:24:04.802Z,8.70
2022-11-17T12:26:34.120Z,8.80
2022-11-17T12:29:20.316Z,8.70
2022-11-17T12:31:52.761Z,8.70
2022-11-17T12:34:35.395Z,8.70
2022-11-17T12:37:15.255Z,8.70
2022-11-17T12:40:04.021Z,8.70
2022-11-17T12:42:33.817Z,8.70
2022-11-17T12:45:01.396Z,8.70
2022-11-17T12:48:11.277Z,8.80
2022-11-17T12:50:57.349Z,8.70
2022-11-17T12:53:47.022Z,8.80
2022-11-17T12:56:31.726Z,8.80
2022-11-17T12:59:12.617Z,8.70
2022-11-17T13:01:58.850Z,8.80
2022-11-17T13:04:49.575Z,8.80
2022-11-17T13:07:23.363Z,8.80
2022-11-17T13:09:59.994Z,8.80
2022-11-17T13:12:33.220Z,8.80
2022-11-17T13:15:05.194Z,8.80
2022-11-17T13:17:39.386Z,8.80
2022-11-17T13:20:13.372Z,8.80
2022-11-17T13:22:42.216Z,8.80
2022-11-17T13:25:22.257Z,8.80
2022-11-17T13:27:55.958Z,8.80
2022-11-17T13:30:26.080Z,8.80
2022-11-17T13:32:54.976Z,8.80
2022-11-17T13:35:24.333Z,8.80
2022-11-17T13:38:19.614Z,8.90
2022-11-17T13:40:49.925Z,8.90
2022-11-17T13:43:20.948Z,8.90
2022-11-17T13:45:50.375Z,8.90
2022-11-17T13:48:35.109Z,8.90
2022-11-17T13:51:22.798Z,8.90
2022-11-17T13:54:20.028Z,8.90
2022-11-17T13:56:47.597Z,8.90
2022-11-17T13:59:26.283Z,8.90
2022-11-17T14:02:29.912Z,8.90
2022-11-17T14:05:15.147Z,8.90
2022-11-17T14:07:44.391Z,8.90
2022-11-17T14:10:20.815Z,8.90
2022-11-17T14:13:08.894Z,9.00
2022-11-17T14:15:47.899Z,8.90
2022-11-17T14:18:31.470Z,8.90
2022-11-17T14:21:08.311Z,8.90
2022-11-17T14:23:35.984Z,9.00
2022-11-17T14:26:04.421Z,8.90
2022-11-17T14:28:32.211Z,8.90
2022-11-17T14:30:59.900Z,9.00
2022-11-17T14:33:27.542Z,8.90
2022-11-17T14:35:57.719Z,8.90
2022-11-17T14:38:25.778Z,8.90
2022-11-17T14:40:53.826Z,8.90
2022-11-17T14:43:22.524Z,8.90
2022-11-17T14:45:50.805Z,8.90
2022-11-17T14:48:19.570Z,8.90
2022-11-17T14:50:48.510Z,8.80
2022-11-17T14:53:16.086Z,11.70
2022-11-17T14:55:43.808Z,8.80
2022-11-17T14:58:11.479Z,8.80
2022-11-17T15:00:39.207Z,8.70
2022-11-17T15:03:06.833Z,8.70
2022-11-17T15:05:34.682Z,8.70
2022-11-17T15:08:03.209Z,8.70
2022-11-17T15:10:30.731Z,8.70
2022-11-17T15:15:27.087Z,8.70
2022-11-17T15:17:54.782Z,8.70
2022-11-17T15:20:22.581Z,8.70
2022-11-17T15:22:50.490Z,8.70
2022-11-17T15:25:18.041Z,8.70
2022-11-17T15:27:46.522Z,8.70
2022-11-17T15:30:14.755Z,8.70
2022-11-17T15:32:42.508Z,8.70
2022-11-17T15:35:10.552Z,8.70
2022-11-17T15:37:38.143Z,8.80
2022-11-17T15:40:06.347Z,8.70
2022-11-17T15:42:37.110Z,8.70
2022-11-17T15:45:05.144Z,8.80
2022-11-17T15:47:35.637Z,8.80
2022-11-17T15:50:03.361Z,8.80
2022-11-17T15:52:56.699Z,8.80
2022-11-17T15:55:18.507Z,8.80
2022-11-17T15:57:46.003Z,8.80
2022-11-17T16:00:14.604Z,8.80
2022-11-17T16:02:42.352Z,8.80
2022-11-17T16:05:10.287Z,8.80
2022-11-17T16:07:38.139Z,8.80
2022-11-17T16:10:06.473Z,8.80
2022-11-17T16:12:34.003Z,8.70
2022-11-17T16:15:01.574Z,8.80
2022-11-17T16:17:29.194Z,8.80
2022-11-17T16:19:56.892Z,8.70
2022-11-17T16:22:24.574Z,8.70
2022-11-17T16:24:52.282Z,8.70
2022-11-17T16:27:19.787Z,8.70
2022-11-17T16:29:52.370Z,8.70
2022-11-17T16:32:20.075Z,8.70
2022-11-17T16:34:49.200Z,8.70
2022-11-17T16:37:17.443Z,8.70
2022-11-17T16:39:45.062Z,8.70
2022-11-17T16:42:13.022Z,8.70
2022-11-17T16:44:40.776Z,8.70
2022-11-17T16:47:08.574Z,8.70
2022-11-17T16:49:36.366Z,8.70
2022-11-17T16:52:04.069Z,8.70
2022-11-17T16:54:33.895Z,8.70
2022-11-17T16:57:01.556Z,8.80
2022-11-17T16:59:29.243Z,8.80
2022-11-17T17:01:59.654Z,8.70
2022-11-17T17:04:32.606Z,8.80
2022-11-17T17:09:28.853Z,8.70
2022-11-17T17:11:57.596Z,8.70
2022-11-17T17:14:25.222Z,8.80
2022-11-17T17:16:52.890Z,8.70
2022-11-17T17:19:20.618Z,8.80
2022-11-17T17:21:48.389Z,8.80
2022-11-17T17:24:16.214Z,8.70
2022-11-17T17:26:44.120Z,8.70
2022-11-17T17:29:14.152Z,8.70
2022-11-17T17:31:42.511Z,8.70
2022-11-17T17:34:12.057Z,8.70
2022-11-17T17:36:40.071Z,8.60
2022-11-17T17:39:08.042Z,8.70
2022-11-17T17:41:39.676Z,8.70
2022-11-17T17:44:08.574Z,8.70
2022-11-17T17:46:38.386Z,8.70
2022-11-17T17:49:07.048Z,8.70
2022-11-17T17:51:44.208Z,8.70
2022-11-17T17:54:18.199Z,8.70
2022-11-17T17:56:46.945Z,8.70
2022-11-17T17:59:16.296Z,8.80
2022-11-17T18:01:46.374Z,8.70
2022-11-17T18:04:16.109Z,8.70
2022-11-17T18:06:48.772Z,8.70
2022-11-17T18:09:20.477Z,8.70
2022-11-17T18:11:50.783Z,8.70
2022-11-17T18:14:24.007Z,8.70
2022-11-17T18:16:53.032Z,8.70
2022-11-17T18:19:21.557Z,8.60
2022-11-17T18:21:49.218Z,8.60
2022-11-17T18:24:19.083Z,8.60
2022-11-17T18:26:46.635Z,9.10
2022-11-17T18:29:18.250Z,8.60
2022-11-17T18:31:47.549Z,8.60
2022-11-17T18:34:21.435Z,8.60
2022-11-17T18:36:50.689Z,8.50
2022-11-17T18:39:19.034Z,8.60
2022-11-17T18:41:47.589Z,8.50
2022-11-17T18:44:19.823Z,8.50
2022-11-17T18:46:48.949Z,8.50
2022-11-17T18:49:17.141Z,8.50
2022-11-17T18:51:45.830Z,8.50
2022-11-17T18:54:13.988Z,8.50
2022-11-17T18:56:42.170Z,8.50
2022-11-17T18:59:13.288Z,8.50
2022-11-17T19:01:42.937Z,8.50
2022-11-17T19:04:13.915Z,8.50
2022-11-17T19:06:41.754Z,8.50
2022-11-17T19:09:09.823Z,8.50
2022-11-17T19:11:37.725Z,8.50
2022-11-17T19:14:05.553Z,8.50
2022-11-17T19:16:42.651Z,8.40
2022-11-17T19:19:13.662Z,8.50
2022-11-17T19:21:42.762Z,8.40
2022-11-17T19:24:10.446Z,8.40
2022-11-17T19:26:39.008Z,8.40
2022-11-17T19:29:14.571Z,8.40
2022-11-17T19:31:45.397Z,8.40
2022-11-17T19:34:14.305Z,8.50
2022-11-17T19:36:42.068Z,8.40
2022-11-17T19:39:12.249Z,8.40
2022-11-17T19:41:39.932Z,8.40
2022-11-17T19:44:08.963Z,8.40
2022-11-17T19:46:37.165Z,8.40
2022-11-17T19:49:07.514Z,8.40
2022-11-17T19:51:37.221Z,8.40
2022-11-17T19:54:07.475Z,8.40
2022-11-17T19:56:35.856Z,8.40
2022-11-17T19:59:04.703Z,8.50
2022-11-17T20:01:33.724Z,8.50
2022-11-17T20:04:02.372Z,8.50
2022-11-17T20:06:37.160Z,8.50
2022-11-17T20:09:09.564Z,8.50
2022-11-17T20:11:38.526Z,8.50
2022-11-17T20:14:06.527Z,8.50
2022-11-17T20:16:34.188Z,8.50
2022-11-17T20:19:02.387Z,8.50
2022-11-17T20:21:32.224Z,8.50
2022-11-17T20:24:01.187Z,8.50
2022-11-17T20:26:31.890Z,8.50
2022-11-17T20:29:00.321Z,8.50
2022-11-17T20:31:30.645Z,8.50
2022-11-17T20:34:00.937Z,8.60
2022-11-17T20:36:30.185Z,8.60
2022-11-17T20:39:00.844Z,8.60
2022-11-17T20:41:31.623Z,8.60
2022-11-17T20:44:00.726Z,8.60
2022-11-17T20:46:28.590Z,8.60
2022-11-17T20:48:56.559Z,8.60
2022-11-17T20:51:25.400Z,8.60
2022-11-17T20:53:53.674Z,8.60
2022-11-17T20:56:21.452Z,8.60
2022-11-17T20:58:49.479Z,8.70
2022-11-17T21:01:20.135Z,8.70
2022-11-17T21:03:48.120Z,8.70
2022-11-17T21:06:16.636Z,8.60
2022-11-17T21:08:45.679Z,8.60
2022-11-17T21:11:34.181Z,8.60
2022-11-17T21:14:02.544Z,8.60
2022-11-17T21:16:30.422Z,8.60
2022-11-17T21:18:58.329Z,8.60
2022-11-17T21:21:26.006Z,8.60
2022-11-17T21:23:54.717Z,8.60
2022-11-17T21:26:26.067Z,8.60
2022-11-17T21:28:54.119Z,8.60
2022-11-17T21:31:24.258Z,8.50
2022-11-17T21:34:00.520Z,8.60
2022-11-17T21:36:29.839Z,8.60
2022-11-17T21:38:58.182Z,8.60
2022-11-17T21:41:29.143Z,8.60
2022-11-17T21:44:02.121Z,8.70
2022-11-17T21:46:32.374Z,8.60
2022-11-17T21:49:00.829Z,8.60
2022-11-17T21:51:34.175Z,8.70
2022-11-17T21:54:03.509Z,8.60
2022-11-17T21:56:32.086Z,8.60
2022-11-17T21:59:05.793Z,8.60
2022-11-17T22:01:34.677Z,8.60
2022-11-17T22:04:02.464Z,8.50
2022-11-17T22:06:30.638Z,8.50
2022-11-17T22:08:59.588Z,8.50
2022-11-17T22:11:35.693Z,8.50
2022-11-17T22:14:14.570Z,8.60
2022-11-17T22:16:46.192Z,8.50
2022-11-17T22:19:15.997Z,8.60
2022-11-17T22:21:45.485Z,8.50
2022-11-17T22:24:13.330Z,8.50
2022-11-17T22:26:42.354Z,8.50
2022-11-17T22:29:21.142Z,8.50
2022-11-17T22:31:50.127Z,8.50
2022-11-17T22:34:18.928Z,8.50
2022-11-17T22:36:46.604Z,8.50
2022-11-17T22:39:14.348Z,8.50
2022-11-17T22:41:42.211Z,8.50
2022-11-17T22:44:14.034Z,8.50
2022-11-17T22:46:43.431Z,8.60
2022-11-17T22:49:11.554Z,8.50
2022-11-17T22:51:58.353Z,8.60
2022-11-17T22:54:30.417Z,8.50
2022-11-17T22:56:59.152Z,8.60
2022-11-17T22:59:28.559Z,8.50
2022-11-17T23:01:57.021Z,8.50
2022-11-17T23:04:24.819Z,8.60
2022-11-17T23:06:52.586Z,8.50
2022-11-17T23:09:20.221Z,8.60
2022-11-17T23:11:49.331Z,8.50
2022-11-17T23:14:16.987Z,8.50
2022-11-17T23:16:45.194Z,8.50
2022-11-17T23:19:13.956Z,8.50
2022-11-17T23:21:41.970Z,8.50
2022-11-17T23:24:12.628Z,8.50
2022-11-17T23:26:41.722Z,8.50
2022-11-17T23:29:09.523Z,8.50
2022-11-17T23:31:37.376Z,8.50
2022-11-17T23:34:07.715Z,8.50
2022-11-17T23:36:35.440Z,8.50
2022-11-17T23:39:03.287Z,8.50
2022-11-17T23:41:30.930Z,8.50
2022-11-17T23:43:58.817Z,8.50
2022-11-17T23:46:27.280Z,8.50
2022-11-17T23:48:57.107Z,8.50
2022-11-17T23:51:25.513Z,8.50
2022-11-17T23:53:53.493Z,8.50
2022-11-17T23:56:21.849Z,8.50
2022-11-17T23:58:50.591Z,8.50
